Delray Beach, FL

10:28 AM EST on December 29, 2014 (GMT -0500)
Fort Lauderdale Executive | Change Station
CLOSE
Current Station
Airport
Location: Fort Lauderdale,
Elevation: 13 ft
Nearby Weather Stations

Elev 13 ft 26.20 °N, 80.18 °W | Updated 35 minutes ago

Partly Cloudy
Partly Cloudy
79 °F
Feels Like 79 °F
N
12
Wind Variable Wind from South

Today
High -- | Low -- °F
--% Chance of Precip.
Yesterday
High -- | Low -- °F
Precip. -- in
7:07 AM 5:37 PM
First Quarter, 60% visible
Pressure 30.15 in
Visibility 10.0 miles
Clouds Scattered Clouds 2100 ft
Scattered Clouds 3200 ft
Dew Point 28 °F
Humidity 15%
Rainfall 0.00 in
Snow Depth Not available.
UV 3 out of 12
Pollen 4.90 out of 12
Air Quality Not available.
Flu Activity Not available.
METAR KFXE 291453Z 17010KT 10SM SCT021 SCT032 26/M02 A3014 RMK AO2 SLP210 T02611022 51015

More Conditions Fewer Conditions

Pressure 30.15 in
Visibility 10.0 miles
Clouds Scattered Clouds 2100 ft
Scattered Clouds 3200 ft
Dew Point 28 °F
Humidity 15%
Rainfall 0.00 in
Snow Depth Not available.
UV 3 out of 12
Pollen 4.90 out of 12
Air Quality Not available.
Flu Activity Not available.
METAR KFXE 291453Z 17010KT 10SM SCT021 SCT032 26/M02 A3014 RMK AO2 SLP210 T02611022 51015

More Conditions Fewer Conditions

10-Day Weather Forecast

Almanac

Astronomy

Dec. 29, 2014 Rise Set
Actual Time
Civil Twilight
Nautical Twilight
Astronomical Twilight
Moon
Length of Visible Light
Length of Day
Tomorrow will be .
, % of the Moon is Illuminated

Today's Extremes

State Highs State Lows

Community

WunderPhotos

Upload Photos

1,781,604 photos uploaded!

WunderBlogs® & News

Nearby

Air Quality

  Air Quality AQ Index Pollutant
Not available.

Snow Depth

Station Depth Elevation

Earthquake Activity

City Distance Mag. Time & Date
Minimum magnitude displayed is 2.5.

Coastal Water Temperatures

Place Temperature

Nearby Weather Stations